Dickinson, ND

5:48 AM MST on November 24, 2017 (GMT -0700)
East side of 10th | | Change Station
Active Advisory: Wind Advisory

Elev 2444 ft 46.89 °N, 102.77 °W | Updated 3 minutes ago

Overcast
Overcast
47.5 °F
Feels Like 43 °F
N
10.4
Wind Variable Wind from West

Today
High -- | Low -- °F
--% Chance of Precip.
Yesterday
High -- | Low -- °F
Precip. -- in
Pressure 29.43 in
Visibility 10.0 miles
Clouds Few 5500 ft
Scattered Clouds 8000 ft
Overcast 10000 ft
Windchill 43 °F
Dew Point 43 °F
Humidity 83%
Rainfall 0.00 in
Snow Depth Not available.
7:07 AM 4:08 PM
Waxing Crescent, 30% visible
METAR KDIK 241156Z AUTO 26017KT 10SM FEW055 SCT080 OVC100 09/06 A2943 RMK AO2 PK WND 29027/1059 RAE43 SLP964 P0001 60001 70001 T00890061 10122 20072 50005
Pressure 29.43 in
Visibility 10.0 miles
Clouds Few 5500 ft
Scattered Clouds 8000 ft
Overcast 10000 ft
Windchill 43 °F
Dew Point 43 °F
Humidity 83%
Rainfall 0.00 in
Snow Depth Not available.
7:07 AM 4:08 PM
Waxing Crescent, 30% visible
METAR KDIK 241156Z AUTO 26017KT 10SM FEW055 SCT080 OVC100 09/06 A2943 RMK AO2 PK WND 29027/1059 RAE43 SLP964 P0001 60001 70001 T00890061 10122 20072 50005

Get Your Daily Forecast Email!

Thanks for signing up!

Be on the lookout for a verification email in your inbox.

You'll start receiving severe weather alerts in your inbox..

×

10-Day Weather Forecast

Almanac

Astronomy

Nov. 24, 2017 Rise Set
Actual Time
Civil Twilight
Nautical Twilight
Astronomical Twilight
Moon
Length of Visible Light
Length of Day
Tomorrow will be .
, % of the Moon is Illuminated

Today's Extremes

State Highs State Lows

Community

WunderPhotos

Category 6

Welcome to Category 6. This is the collective home for Weather Underground's featured writeups by Dr. Jeff Masters (right), Bob Henson (left), Chris Burt, and other regular contributors.

Nearby

Air Quality

  Air Quality AQ Index Pollutant
Not available.

Snow Depth

Station Depth Elevation

Earthquake Activity

City Distance Mag. Time & Date
Minimum magnitude displayed is 2.5.

Coastal Water Temperatures

Place Temperature

Stations

Nearby Weather Stations

Station Location Temp. Windchill Dew Point Humidity Wind Precip. Elev Updated Type
                   

Watches & Warnings

Wind Advisory
Issued: 3:46 AM MST Nov. 24, 2017 – National Weather Service

... Wind Advisory remains in effect until 3 PM CST /2 PM MST/ this
afternoon...

* timing... strongest winds Friday morning through early Friday
afternoon.

* Winds... northwest wind gusts up to 50 mph.

* Impacts... driving high profile vehicles will be difficult.
Working outdoors on elevated structures will be hazardous.

Precautionary/preparedness actions...

A Wind Advisory means that wind gusts in excess of 45 mph are
expected. Winds this strong can make driving difficult...
especially for high profile vehicles. Use extra caution.